Poseyville, Indiana
Current Conditions -  °F | °C
As of 7:54 AM on Thursday 27 Nov 2014 (Local Time) from KEVV Reporting Station
Overcast Overcast  
Wind Chill: 21°   Ceiling: 1600
Heat Index: 28°   Visibility: 8mi
Dew Point: 21°   Wind: 7mph
Humidity: 75%   Direction: 320°NW
Pressure: 30.39"   Gusts: NA
Location:  38.17°N, 87.78°W
Report Text: KEVV 271354Z 32006KT 8SM OVC016 M02/M06 A3039 RMK AO2 SLP296 T10221061
Loading
Personal Weather Stations






























Interactive Weather Map New forecast layout! Learn more

10-Day Weather Forecast

Advertisements
Track Severe Weather on mobile